createdAt,value
2018-07-28T00:01:50.675Z,23.67
2018-07-28T00:05:54.204Z,23.65
2018-07-28T00:09:57.689Z,23.60
2018-07-28T00:14:01.186Z,23.54
2018-07-28T00:18:04.689Z,23.47
2018-07-28T00:22:08.128Z,23.40
2018-07-28T00:26:18.205Z,23.34
2018-07-28T00:30:21.668Z,23.25
2018-07-28T00:34:25.133Z,23.20
2018-07-28T00:38:28.618Z,23.16
2018-07-28T00:42:32.090Z,23.16
2018-07-28T00:46:35.615Z,23.16
2018-07-28T00:50:39.101Z,23.13
2018-07-28T00:54:42.569Z,23.11
2018-07-28T00:58:45.995Z,23.08
2018-07-28T01:02:49.475Z,23.05
2018-07-28T01:06:53.018Z,23.00
2018-07-28T01:10:56.465Z,22.95
2018-07-28T01:14:59.951Z,22.90
2018-07-28T01:19:03.690Z,22.84
2018-07-28T01:23:07.165Z,22.83
2018-07-28T01:27:10.598Z,22.80
2018-07-28T01:31:14.129Z,22.79
2018-07-28T01:35:17.645Z,22.76
2018-07-28T01:39:21.101Z,22.75
2018-07-28T01:43:24.545Z,22.76
2018-07-28T01:47:28.008Z,22.71
2018-07-28T01:51:31.483Z,22.68
2018-07-28T01:55:34.946Z,22.66
2018-07-28T01:59:38.588Z,22.65
2018-07-28T02:03:41.984Z,22.61
2018-07-28T02:07:45.447Z,22.60
2018-07-28T02:11:48.958Z,22.56
2018-07-28T02:15:52.401Z,22.52
2018-07-28T02:19:55.891Z,22.51
2018-07-28T02:23:59.374Z,22.49
2018-07-28T02:28:02.849Z,22.43
2018-07-28T02:32:06.382Z,22.36
2018-07-28T02:36:09.865Z,22.35
2018-07-28T02:40:13.371Z,22.35
2018-07-28T02:44:16.810Z,22.34
2018-07-28T02:48:20.298Z,22.30
2018-07-28T02:52:23.786Z,22.28
2018-07-28T02:56:27.294Z,22.26
2018-07-28T03:00:30.854Z,22.25
2018-07-28T03:04:34.363Z,22.23
2018-07-28T03:08:37.797Z,22.15
2018-07-28T03:12:41.251Z,22.07
2018-07-28T03:16:44.799Z,22.07
2018-07-28T03:20:48.273Z,22.08
2018-07-28T03:24:51.809Z,22.08
2018-07-28T03:28:55.281Z,22.09
2018-07-28T03:32:58.810Z,22.10
2018-07-28T03:37:02.362Z,22.09
2018-07-28T03:41:05.934Z,22.08
2018-07-28T03:45:10.315Z,22.06
2018-07-28T03:49:13.828Z,22.08
2018-07-28T03:53:17.338Z,22.08
2018-07-28T03:57:20.796Z,22.07
2018-07-28T04:01:24.306Z,22.06
2018-07-28T04:05:27.808Z,22.05
2018-07-28T04:09:31.278Z,22.04
2018-07-28T04:13:34.770Z,22.07
2018-07-28T04:17:55.565Z,22.11
2018-07-28T04:21:59.019Z,22.14
2018-07-28T04:26:02.537Z,22.14
2018-07-28T04:30:06.179Z,22.15
2018-07-28T04:34:09.658Z,22.14
2018-07-28T04:38:13.181Z,22.14
2018-07-28T04:42:16.670Z,22.17
2018-07-28T04:46:20.153Z,22.22
2018-07-28T04:50:23.626Z,22.23
2018-07-28T04:54:27.084Z,22.30
2018-07-28T04:58:30.541Z,22.38
2018-07-28T05:02:34.066Z,22.44
2018-07-28T05:06:37.485Z,22.46
2018-07-28T05:10:40.998Z,22.49
2018-07-28T05:14:44.491Z,22.53
2018-07-28T05:18:47.962Z,22.58
2018-07-28T05:22:51.412Z,22.61
2018-07-28T05:26:54.914Z,22.65
2018-07-28T05:30:58.510Z,22.68
2018-07-28T05:35:01.977Z,22.71
2018-07-28T05:39:10.120Z,22.76
2018-07-28T05:43:13.595Z,22.82
2018-07-28T05:47:17.190Z,22.88
2018-07-28T05:51:20.682Z,22.88
2018-07-28T05:55:24.194Z,22.93
2018-07-28T05:59:27.661Z,23.03
2018-07-28T06:03:31.219Z,23.11
2018-07-28T06:07:34.648Z,23.25
2018-07-28T06:11:38.274Z,23.46
2018-07-28T06:15:41.785Z,23.71
2018-07-28T06:19:45.231Z,23.88
2018-07-28T06:23:48.742Z,24.07
2018-07-28T06:27:52.247Z,24.27
2018-07-28T06:31:55.746Z,24.53
2018-07-28T06:35:59.214Z,24.73
2018-07-28T06:40:02.843Z,24.84
2018-07-28T06:44:06.499Z,24.93
2018-07-28T06:48:09.988Z,25.15
2018-07-28T06:52:13.522Z,25.32
2018-07-28T06:56:17.097Z,25.54
2018-07-28T07:00:20.580Z,25.77
2018-07-28T07:04:24.047Z,25.89
2018-07-28T07:08:27.552Z,25.94
2018-07-28T07:12:31.006Z,26.14
2018-07-28T07:16:34.840Z,26.36
2018-07-28T07:20:38.427Z,26.57
2018-07-28T07:24:41.927Z,26.73
2018-07-28T07:28:46.431Z,26.92
2018-07-28T07:32:49.885Z,26.94
2018-07-28T07:36:53.420Z,26.92
2018-07-28T07:40:56.898Z,27.09
2018-07-28T07:45:00.393Z,27.27
2018-07-28T07:49:03.871Z,27.42
2018-07-28T07:53:07.449Z,27.52
2018-07-28T07:57:11.226Z,27.56
2018-07-28T08:01:14.786Z,27.69
2018-07-28T08:05:18.302Z,27.92
2018-07-28T08:09:21.745Z,28.11
2018-07-28T08:13:25.236Z,28.28
2018-07-28T08:17:28.691Z,28.42
2018-07-28T08:21:32.185Z,28.49
2018-07-28T08:25:35.639Z,28.41
2018-07-28T08:29:39.142Z,28.50
2018-07-28T08:33:42.609Z,28.63
2018-07-28T08:37:46.140Z,28.78
2018-07-28T08:41:49.629Z,28.78
2018-07-28T08:45:53.053Z,28.79
2018-07-28T08:49:56.590Z,28.92
2018-07-28T08:54:00.103Z,28.94
2018-07-28T08:58:03.623Z,29.01
2018-07-28T09:02:07.179Z,29.05
2018-07-28T09:06:10.647Z,29.19
2018-07-28T09:10:14.227Z,29.21
2018-07-28T09:14:17.738Z,29.28
2018-07-28T09:18:21.227Z,29.39
2018-07-28T09:22:24.804Z,29.56
2018-07-28T09:26:28.258Z,29.75
2018-07-28T09:30:31.765Z,29.93
2018-07-28T09:34:35.226Z,29.98
2018-07-28T09:38:38.728Z,30.08
2018-07-28T09:42:42.166Z,30.10
2018-07-28T09:46:45.656Z,30.17
2018-07-28T09:50:49.187Z,30.28
2018-07-28T09:54:52.990Z,30.47
2018-07-28T09:58:56.644Z,30.63
2018-07-28T10:03:00.279Z,30.74
2018-07-28T10:07:03.855Z,30.86
2018-07-28T10:11:07.371Z,30.95
2018-07-28T10:15:10.903Z,31.06
2018-07-28T10:19:14.534Z,31.00
2018-07-28T10:23:18.207Z,30.94
2018-07-28T10:27:21.798Z,30.94
2018-07-28T10:31:25.387Z,30.96
2018-07-28T10:35:28.898Z,31.02
2018-07-28T10:39:32.409Z,31.22
2018-07-28T10:43:36.070Z,31.31
2018-07-28T10:47:39.661Z,31.38
2018-07-28T10:51:43.245Z,31.52
2018-07-28T10:55:46.731Z,31.63
2018-07-28T10:59:50.194Z,31.76
2018-07-28T11:03:53.819Z,31.84
2018-07-28T11:07:57.291Z,31.85
2018-07-28T11:12:01.089Z,31.97
2018-07-28T11:16:04.721Z,32.08
2018-07-28T11:20:09.891Z,32.08
2018-07-28T11:24:13.366Z,32.03
2018-07-28T11:28:19.499Z,32.09
2018-07-28T11:32:34.251Z,32.17
2018-07-28T11:36:48.974Z,32.33
2018-07-28T11:41:03.597Z,32.40
2018-07-28T11:45:15.798Z,32.46
2018-07-28T11:49:19.267Z,32.55
2018-07-28T11:53:22.755Z,32.62
2018-07-28T11:57:26.244Z,32.63
2018-07-28T12:01:29.694Z,32.73
2018-07-28T12:05:33.300Z,32.81
2018-07-28T12:09:36.810Z,32.91
2018-07-28T12:13:40.300Z,33.02
2018-07-28T12:17:43.842Z,33.08
2018-07-28T12:21:47.303Z,33.12
2018-07-28T12:25:50.794Z,33.11
2018-07-28T12:29:54.273Z,33.13
2018-07-28T12:33:57.726Z,33.17
2018-07-28T12:38:01.269Z,33.18
2018-07-28T12:42:04.869Z,33.10
2018-07-28T12:46:08.407Z,33.09
2018-07-28T12:50:11.873Z,33.11
2018-07-28T12:54:15.376Z,33.07
2018-07-28T12:58:18.951Z,33.07
2018-07-28T13:02:22.410Z,33.11
2018-07-28T13:06:25.878Z,33.14
2018-07-28T13:10:29.346Z,33.19
2018-07-28T13:14:32.802Z,33.13
2018-07-28T13:18:36.316Z,33.10
2018-07-28T13:22:39.783Z,33.10
2018-07-28T13:26:43.316Z,33.14
2018-07-28T13:30:46.815Z,33.09
2018-07-28T13:34:50.362Z,32.98
2018-07-28T13:38:53.853Z,32.82
2018-07-28T13:42:57.299Z,32.73
2018-07-28T13:47:00.786Z,32.62
2018-07-28T13:51:04.217Z,32.55
2018-07-28T13:55:07.752Z,32.52
2018-07-28T13:59:11.488Z,32.43
2018-07-28T14:03:14.971Z,32.35
2018-07-28T14:07:18.717Z,32.31
2018-07-28T14:11:22.212Z,32.32
2018-07-28T14:15:25.685Z,32.37
2018-07-28T14:19:29.184Z,32.46
2018-07-28T14:23:32.691Z,32.52
2018-07-28T14:27:36.586Z,32.51
2018-07-28T14:31:40.244Z,32.45
2018-07-28T14:35:43.723Z,32.44
2018-07-28T14:39:47.277Z,32.44
2018-07-28T14:43:50.957Z,32.49
2018-07-28T14:47:54.597Z,32.54
2018-07-28T14:51:58.102Z,32.54
2018-07-28T14:56:01.568Z,32.53
2018-07-28T15:00:06.047Z,32.61
2018-07-28T15:04:09.603Z,32.63
2018-07-28T15:08:13.053Z,32.68
2018-07-28T15:12:16.574Z,32.67
2018-07-28T15:16:20.038Z,32.65
2018-07-28T15:20:23.571Z,32.63
2018-07-28T15:24:27.053Z,32.56
2018-07-28T15:28:30.592Z,32.49
2018-07-28T15:32:34.135Z,32.42
2018-07-28T15:36:37.833Z,32.42
2018-07-28T15:40:41.739Z,32.38
2018-07-28T15:44:45.311Z,32.37
2018-07-28T15:48:49.132Z,32.37
2018-07-28T15:52:52.742Z,32.34
2018-07-28T15:56:56.488Z,32.33
2018-07-28T16:01:00.111Z,32.30
2018-07-28T16:05:03.732Z,32.27
2018-07-28T16:09:09.498Z,32.19
2018-07-28T16:13:13.130Z,32.13
2018-07-28T16:17:16.900Z,32.11
2018-07-28T16:21:20.478Z,32.07
2018-07-28T16:25:24.170Z,32.01
2018-07-28T16:29:29.374Z,31.97
2018-07-28T16:33:32.951Z,31.91
2018-07-28T16:37:36.993Z,31.89
2018-07-28T16:41:40.801Z,31.86
2018-07-28T16:45:44.535Z,31.79
2018-07-28T16:49:48.172Z,31.76
2018-07-28T16:53:51.882Z,31.75
2018-07-28T16:57:55.506Z,31.70
2018-07-28T17:01:59.115Z,31.66
2018-07-28T17:06:02.799Z,31.59
2018-07-28T17:10:06.645Z,31.50
2018-07-28T17:14:10.511Z,31.47
2018-07-28T17:18:14.074Z,31.42
2018-07-28T17:22:18.001Z,31.38
2018-07-28T17:26:21.590Z,31.36
2018-07-28T17:30:25.332Z,31.34
2018-07-28T17:34:28.980Z,31.29
2018-07-28T17:38:33.180Z,31.22
2018-07-28T17:42:36.984Z,31.16
2018-07-28T17:46:40.766Z,31.13
2018-07-28T17:50:44.291Z,31.09
2018-07-28T17:54:48.119Z,31.03
2018-07-28T17:58:51.723Z,30.97
2018-07-28T18:02:55.329Z,30.93
2018-07-28T18:06:58.989Z,30.88
2018-07-28T18:11:02.646Z,30.83
2018-07-28T18:15:06.386Z,30.79
2018-07-28T18:19:09.921Z,30.75
2018-07-28T18:23:13.416Z,30.70
2018-07-28T18:27:16.937Z,30.64
2018-07-28T18:31:20.509Z,30.57
2018-07-28T18:35:23.947Z,30.50
2018-07-28T18:39:27.430Z,30.44
2018-07-28T18:43:30.917Z,30.32
2018-07-28T18:47:34.387Z,30.23
2018-07-28T18:51:37.882Z,30.15
2018-07-28T18:55:41.316Z,30.09
2018-07-28T18:59:45.107Z,30.01
2018-07-28T19:03:48.952Z,29.94
2018-07-28T19:07:52.670Z,29.88
2018-07-28T19:11:56.529Z,29.82
2018-07-28T19:16:00.240Z,29.75
2018-07-28T19:20:04.171Z,29.70
2018-07-28T19:24:08.084Z,29.64
2018-07-28T19:28:17.120Z,29.59
2018-07-28T19:32:20.917Z,29.52
2018-07-28T19:36:29.921Z,29.46
2018-07-28T19:40:34.062Z,29.34
2018-07-28T19:44:38.705Z,29.24
2018-07-28T19:48:42.709Z,29.16
2018-07-28T19:52:46.777Z,29.08
2018-07-28T19:56:50.937Z,29.03
2018-07-28T20:00:55.012Z,28.97
2018-07-28T20:04:58.936Z,28.91
2018-07-28T20:09:03.194Z,28.84
2018-07-28T20:13:07.440Z,28.75
2018-07-28T20:17:11.496Z,28.71
2018-07-28T20:21:15.458Z,28.67
2018-07-28T20:25:19.336Z,28.64
2018-07-28T20:29:23.527Z,28.60
2018-07-28T20:33:28.481Z,28.54
2018-07-28T20:37:32.518Z,28.48
2018-07-28T20:41:36.573Z,28.46
2018-07-28T20:45:40.809Z,28.41
2018-07-28T20:49:44.938Z,28.36
2018-07-28T20:53:48.948Z,28.34
2018-07-28T20:57:53.057Z,28.28
2018-07-28T21:01:57.090Z,28.17
2018-07-28T21:06:01.615Z,28.10
2018-07-28T21:10:05.711Z,28.03
2018-07-28T21:14:09.742Z,27.96
2018-07-28T21:18:13.889Z,27.85
2018-07-28T21:22:18.012Z,27.75
2018-07-28T21:26:22.149Z,27.68
2018-07-28T21:30:26.604Z,27.62
2018-07-28T21:34:30.892Z,27.55
2018-07-28T21:38:35.284Z,27.50
2018-07-28T21:42:38.817Z,27.48
2018-07-28T21:46:42.289Z,27.47
2018-07-28T21:50:45.820Z,27.45
2018-07-28T21:54:49.483Z,27.39
2018-07-28T21:58:54.538Z,27.34
2018-07-28T22:02:58.018Z,27.28
2018-07-28T22:07:01.473Z,27.23
2018-07-28T22:11:04.937Z,27.19
2018-07-28T22:15:08.358Z,27.15
2018-07-28T22:19:11.795Z,27.09
2018-07-28T22:23:16.270Z,27.05
2018-07-28T22:27:19.762Z,27.00
2018-07-28T22:31:23.185Z,26.92
2018-07-28T22:35:26.679Z,26.84
2018-07-28T22:39:30.155Z,26.79
2018-07-28T22:43:33.617Z,26.73
2018-07-28T22:47:37.113Z,26.71
2018-07-28T22:51:40.647Z,26.68
2018-07-28T22:55:44.110Z,26.65
2018-07-28T22:59:47.576Z,26.61
2018-07-28T23:03:51.053Z,26.57
2018-07-28T23:07:54.575Z,26.53
2018-07-28T23:11:58.051Z,26.48
2018-07-28T23:16:01.554Z,26.45
2018-07-28T23:20:05.716Z,26.36
2018-07-28T23:24:09.194Z,26.27
2018-07-28T23:28:12.636Z,26.24
2018-07-28T23:32:16.167Z,26.18
2018-07-28T23:36:19.658Z,26.13
2018-07-28T23:40:23.123Z,26.11
2018-07-28T23:44:26.620Z,26.10
2018-07-28T23:48:30.122Z,26.10
2018-07-28T23:52:33.631Z,26.05
2018-07-28T23:56:37.132Z,26.00
